KCEU/CEU METAR and TAF weather

Enter ICAO airport designator
Station Type Date Time Source
KCEU METAR 2022/08/12 14:54 UTC NOAA

KCEU 121454Z AUTO 00000KT 10SM BKN013 26/23 A3005 RMK AO2 SLP166 T02560228 51003


Station Type Date Time Source
KCEU Decoded METAR 2022/08/12 14:54 UTC NOAA

CLEMSON-OCONEE COUNTY AIRPORT , SC, United States (KCEU) 34-40N 082-53W 268M
Aug 12, 2022 - 10:54 AM EDT / 2022.08.12 1454 UTC
Wind: Calm:0
Visibility: 10 mile(s):0
Sky conditions: mostly cloudy
Temperature: 78.1 F (25.6 C)
Dew Point: 73.0 F (22.8 C)
Relative Humidity: 84%
Pressure (altimeter): 30.05 in. Hg (1017 hPa)
Pressure tendency: 0.01 inches (0.3 hPa) higher than three hours ago
ob: KCEU 121454Z AUTO 00000KT 10SM BKN013 26/23 A3005 RMK AO2 SLP166 T02560228 51003
cycle: 15

Station Type Date Time Source
KCEU TAF UTC NOAA

Error!

Example: see airport list